sensor_id;sensor_type;location;lat;lon;timestamp;P1;durP1;ratioP1;P2;durP2;ratioP2
35306;SDS011;21420;52.196;21.416;2022-09-23T00:03:32;12.50;;;8.78;;
35306;SDS011;21420;52.196;21.416;2022-09-23T00:05:59;11.22;;;8.55;;
35306;SDS011;21420;52.196;21.416;2022-09-23T00:08:32;11.10;;;9.28;;
35306;SDS011;21420;52.196;21.416;2022-09-23T00:11:03;11.05;;;9.15;;
35306;SDS011;21420;52.196;21.416;2022-09-23T00:13:36;10.48;;;8.58;;
35306;SDS011;21420;52.196;21.416;2022-09-23T00:16:04;13.85;;;8.80;;
35306;SDS011;21420;52.196;21.416;2022-09-23T00:18:36;15.10;;;9.80;;
35306;SDS011;21420;52.196;21.416;2022-09-23T00:21:03;9.78;;;8.18;;
35306;SDS011;21420;52.196;21.416;2022-09-23T00:23:33;11.50;;;8.68;;
35306;SDS011;21420;52.196;21.416;2022-09-23T00:26:00;10.82;;;8.35;;
35306;SDS011;21420;52.196;21.416;2022-09-23T00:28:28;11.63;;;8.58;;
35306;SDS011;21420;52.196;21.416;2022-09-23T00:31:00;11.25;;;8.70;;
35306;SDS011;21420;52.196;21.416;2022-09-23T00:33:28;12.53;;;8.83;;
35306;SDS011;21420;52.196;21.416;2022-09-23T00:35:59;10.90;;;8.78;;
35306;SDS011;21420;52.196;21.416;2022-09-23T00:38:26;12.18;;;9.08;;
35306;SDS011;21420;52.196;21.416;2022-09-23T00:40:53;10.65;;;8.45;;
35306;SDS011;21420;52.196;21.416;2022-09-23T00:43:19;13.03;;;9.60;;
35306;SDS011;21420;52.196;21.416;2022-09-23T00:46:10;13.18;;;8.63;;
35306;SDS011;21420;52.196;21.416;2022-09-23T00:48:47;13.75;;;7.90;;
35306;SDS011;21420;52.196;21.416;2022-09-23T00:51:18;12.60;;;8.53;;
35306;SDS011;21420;52.196;21.416;2022-09-23T00:53:48;12.13;;;8.50;;
35306;SDS011;21420;52.196;21.416;2022-09-23T00:56:17;10.50;;;8.63;;
35306;SDS011;21420;52.196;21.416;2022-09-23T00:58:46;9.78;;;7.75;;
35306;SDS011;21420;52.196;21.416;2022-09-23T01:01:15;12.55;;;8.08;;
35306;SDS011;21420;52.196;21.416;2022-09-23T01:03:42;10.10;;;8.98;;
35306;SDS011;21420;52.196;21.416;2022-09-23T01:06:10;11.65;;;8.35;;
35306;SDS011;21420;52.196;21.416;2022-09-23T01:08:38;10.08;;;8.18;;
35306;SDS011;21420;52.196;21.416;2022-09-23T01:11:13;10.48;;;8.03;;
35306;SDS011;21420;52.196;21.416;2022-09-23T01:14:05;9.98;;;8.53;;
35306;SDS011;21420;52.196;21.416;2022-09-23T01:25:34;9.78;;;8.10;;
35306;SDS011;21420;52.196;21.416;2022-09-23T01:28:16;10.08;;;7.37;;
35306;SDS011;21420;52.196;21.416;2022-09-23T01:33:50;11.70;;;8.33;;
35306;SDS011;21420;52.196;21.416;2022-09-23T01:36:34;9.78;;;7.95;;
35306;SDS011;21420;52.196;21.416;2022-09-23T01:41:47;14.45;;;9.30;;
35306;SDS011;21420;52.196;21.416;2022-09-23T01:45:05;10.32;;;8.28;;
35306;SDS011;21420;52.196;21.416;2022-09-23T01:47:09;13.45;;;8.73;;
35306;SDS011;21420;52.196;21.416;2022-09-23T01:52:30;12.58;;;7.75;;
35306;SDS011;21420;52.196;21.416;2022-09-23T01:57:41;13.18;;;9.23;;
35306;SDS011;21420;52.196;21.416;2022-09-23T02:00:14;10.30;;;8.68;;
35306;SDS011;21420;52.196;21.416;2022-09-23T02:02:47;12.37;;;9.60;;
35306;SDS011;21420;52.196;21.416;2022-09-23T02:05:19;9.45;;;8.05;;
35306;SDS011;21420;52.196;21.416;2022-09-23T02:07:59;12.47;;;8.18;;
35306;SDS011;21420;52.196;21.416;2022-09-23T02:10:36;15.90;;;9.20;;
35306;SDS011;21420;52.196;21.416;2022-09-23T02:13:20;18.60;;;8.23;;
35306;SDS011;21420;52.196;21.416;2022-09-23T02:20:04;10.70;;;8.03;;
35306;SDS011;21420;52.196;21.416;2022-09-23T02:22:39;8.90;;;7.37;;
35306;SDS011;21420;52.196;21.416;2022-09-23T02:25:09;12.98;;;8.33;;
35306;SDS011;21420;52.196;21.416;2022-09-23T02:27:41;12.15;;;8.88;;
35306;SDS011;21420;52.196;21.416;2022-09-23T02:30:16;14.55;;;8.80;;
35306;SDS011;21420;52.196;21.416;2022-09-23T02:32:54;11.30;;;8.30;;
35306;SDS011;21420;52.196;21.416;2022-09-23T02:41:07;30.95;;;9.60;;
35306;SDS011;21420;52.196;21.416;2022-09-23T02:44:10;30.85;;;9.55;;
35306;SDS011;21420;52.196;21.416;2022-09-23T02:46:37;17.92;;;7.62;;
35306;SDS011;21420;52.196;21.416;2022-09-23T02:51:50;13.25;;;8.93;;
35306;SDS011;21420;52.196;21.416;2022-09-23T02:54:19;12.20;;;9.35;;
35306;SDS011;21420;52.196;21.416;2022-09-23T02:56:49;15.80;;;8.55;;
35306;SDS011;21420;52.196;21.416;2022-09-23T02:59:15;10.75;;;8.50;;
35306;SDS011;21420;52.196;21.416;2022-09-23T03:10:31;9.25;;;6.85;;
35306;SDS011;21420;52.196;21.416;2022-09-23T03:19:06;9.00;;;5.28;;
35306;SDS011;21420;52.196;21.416;2022-09-23T03:21:57;6.35;;;4.92;;
35306;SDS011;21420;52.196;21.416;2022-09-23T03:24:39;4.17;;;3.75;;
35306;SDS011;21420;52.196;21.416;2022-09-23T03:29:42;5.50;;;4.33;;
35306;SDS011;21420;52.196;21.416;2022-09-23T03:32:12;6.30;;;4.50;;
35306;SDS011;21420;52.196;21.416;2022-09-23T03:34:41;8.08;;;5.42;;
35306;SDS011;21420;52.196;21.416;2022-09-23T03:37:19;6.30;;;5.05;;
35306;SDS011;21420;52.196;21.416;2022-09-23T03:40:14;6.42;;;4.53;;
35306;SDS011;21420;52.196;21.416;2022-09-23T03:42:44;7.45;;;4.97;;
35306;SDS011;21420;52.196;21.416;2022-09-23T03:45:19;5.85;;;4.95;;
35306;SDS011;21420;52.196;21.416;2022-09-23T03:47:48;7.50;;;5.87;;
35306;SDS011;21420;52.196;21.416;2022-09-23T03:50:14;6.12;;;5.17;;
35306;SDS011;21420;52.196;21.416;2022-09-23T03:52:41;6.90;;;5.62;;
35306;SDS011;21420;52.196;21.416;2022-09-23T03:55:09;7.70;;;5.40;;
35306;SDS011;21420;52.196;21.416;2022-09-23T03:57:36;5.97;;;5.37;;
35306;SDS011;21420;52.196;21.416;2022-09-23T04:00:03;5.67;;;4.95;;
35306;SDS011;21420;52.196;21.416;2022-09-23T04:02:33;7.25;;;4.80;;
35306;SDS011;21420;52.196;21.416;2022-09-23T04:04:59;8.33;;;5.20;;
35306;SDS011;21420;52.196;21.416;2022-09-23T04:07:25;6.70;;;5.25;;
35306;SDS011;21420;52.196;21.416;2022-09-23T04:09:52;5.80;;;5.20;;
35306;SDS011;21420;52.196;21.416;2022-09-23T04:12:18;8.08;;;6.58;;
35306;SDS011;21420;52.196;21.416;2022-09-23T04:14:44;6.90;;;5.95;;
35306;SDS011;21420;52.196;21.416;2022-09-23T04:17:10;6.30;;;5.60;;
35306;SDS011;21420;52.196;21.416;2022-09-23T04:19:37;10.82;;;6.37;;
35306;SDS011;21420;52.196;21.416;2022-09-23T04:22:04;7.75;;;5.97;;
35306;SDS011;21420;52.196;21.416;2022-09-23T04:24:30;7.17;;;6.35;;
35306;SDS011;21420;52.196;21.416;2022-09-23T04:27:00;14.45;;;5.65;;
35306;SDS011;21420;52.196;21.416;2022-09-23T04:29:24;18.17;;;5.35;;
35306;SDS011;21420;52.196;21.416;2022-09-23T04:31:51;19.30;;;5.72;;
35306;SDS011;21420;52.196;21.416;2022-09-23T04:34:18;21.85;;;4.72;;
35306;SDS011;21420;52.196;21.416;2022-09-23T04:36:45;8.98;;;7.10;;
35306;SDS011;21420;52.196;21.416;2022-09-23T04:39:13;20.25;;;4.80;;
35306;SDS011;21420;52.196;21.416;2022-09-23T04:41:41;14.95;;;4.72;;
35306;SDS011;21420;52.196;21.416;2022-09-23T04:44:10;15.35;;;5.58;;
35306;SDS011;21420;52.196;21.416;2022-09-23T04:46:37;15.75;;;9.80;;
35306;SDS011;21420;52.196;21.416;2022-09-23T04:49:05;25.32;;;12.28;;
35306;SDS011;21420;52.196;21.416;2022-09-23T04:51:32;19.27;;;10.72;;
35306;SDS011;21420;52.196;21.416;2022-09-23T04:53:58;14.18;;;9.40;;
35306;SDS011;21420;52.196;21.416;2022-09-23T04:56:29;9.78;;;6.92;;
35306;SDS011;21420;52.196;21.416;2022-09-23T04:58:56;9.08;;;4.85;;
35306;SDS011;21420;52.196;21.416;2022-09-23T05:01:24;8.83;;;4.62;;
35306;SDS011;21420;52.196;21.416;2022-09-23T05:03:53;8.23;;;6.10;;
35306;SDS011;21420;52.196;21.416;2022-09-23T05:06:23;9.18;;;6.10;;
35306;SDS011;21420;52.196;21.416;2022-09-23T05:08:50;12.07;;;6.62;;
35306;SDS011;21420;52.196;21.416;2022-09-23T05:11:19;10.73;;;6.50;;
35306;SDS011;21420;52.196;21.416;2022-09-23T05:13:46;8.88;;;5.40;;
35306;SDS011;21420;52.196;21.416;2022-09-23T05:16:13;7.80;;;5.00;;
35306;SDS011;21420;52.196;21.416;2022-09-23T05:18:41;7.42;;;4.87;;
35306;SDS011;21420;52.196;21.416;2022-09-23T05:21:08;7.12;;;4.70;;
35306;SDS011;21420;52.196;21.416;2022-09-23T05:23:37;5.40;;;4.47;;
35306;SDS011;21420;52.196;21.416;2022-09-23T05:26:06;9.13;;;4.65;;
35306;SDS011;21420;52.196;21.416;2022-09-23T05:28:35;13.58;;;4.85;;
35306;SDS011;21420;52.196;21.416;2022-09-23T05:33:40;8.03;;;5.50;;
35306;SDS011;21420;52.196;21.416;2022-09-23T05:36:13;6.70;;;4.92;;
35306;SDS011;21420;52.196;21.416;2022-09-23T05:38:41;6.50;;;4.67;;
35306;SDS011;21420;52.196;21.416;2022-09-23T05:41:09;6.15;;;4.90;;
35306;SDS011;21420;52.196;21.416;2022-09-23T05:43:37;7.20;;;5.25;;
35306;SDS011;21420;52.196;21.416;2022-09-23T05:46:15;6.10;;;4.25;;
35306;SDS011;21420;52.196;21.416;2022-09-23T05:48:44;5.42;;;4.85;;
35306;SDS011;21420;52.196;21.416;2022-09-23T05:51:12;7.55;;;4.40;;
35306;SDS011;21420;52.196;21.416;2022-09-23T05:53:45;9.08;;;5.17;;
35306;SDS011;21420;52.196;21.416;2022-09-23T05:56:13;7.15;;;4.75;;
35306;SDS011;21420;52.196;21.416;2022-09-23T05:58:41;10.65;;;4.87;;
35306;SDS011;21420;52.196;21.416;2022-09-23T06:01:08;11.48;;;5.37;;
35306;SDS011;21420;52.196;21.416;2022-09-23T06:03:36;11.80;;;5.50;;
35306;SDS011;21420;52.196;21.416;2022-09-23T06:06:04;5.83;;;5.22;;
35306;SDS011;21420;52.196;21.416;2022-09-23T06:08:31;7.12;;;5.50;;
35306;SDS011;21420;52.196;21.416;2022-09-23T06:11:03;7.22;;;5.05;;
35306;SDS011;21420;52.196;21.416;2022-09-23T06:13:33;6.72;;;5.35;;
35306;SDS011;21420;52.196;21.416;2022-09-23T06:16:08;6.40;;;5.33;;
35306;SDS011;21420;52.196;21.416;2022-09-23T06:18:38;6.05;;;5.45;;
35306;SDS011;21420;52.196;21.416;2022-09-23T06:23:36;6.97;;;5.73;;
35306;SDS011;21420;52.196;21.416;2022-09-23T06:26:03;6.17;;;5.58;;
35306;SDS011;21420;52.196;21.416;2022-09-23T06:28:34;7.17;;;5.75;;
35306;SDS011;21420;52.196;21.416;2022-09-23T06:33:30;6.65;;;5.78;;
35306;SDS011;21420;52.196;21.416;2022-09-23T06:35:57;6.60;;;5.75;;
35306;SDS011;21420;52.196;21.416;2022-09-23T06:38:25;7.53;;;5.28;;
35306;SDS011;21420;52.196;21.416;2022-09-23T06:40:53;6.50;;;5.67;;
35306;SDS011;21420;52.196;21.416;2022-09-23T06:43:22;6.40;;;5.80;;
35306;SDS011;21420;52.196;21.416;2022-09-23T06:48:24;3.60;;;3.30;;
35306;SDS011;21420;52.196;21.416;2022-09-23T06:50:51;3.85;;;3.55;;
35306;SDS011;21420;52.196;21.416;2022-09-23T06:53:19;4.35;;;3.30;;
35306;SDS011;21420;52.196;21.416;2022-09-23T06:55:48;4.72;;;3.85;;
35306;SDS011;21420;52.196;21.416;2022-09-23T06:58:25;5.25;;;4.10;;
35306;SDS011;21420;52.196;21.416;2022-09-23T07:00:51;4.90;;;3.70;;
35306;SDS011;21420;52.196;21.416;2022-09-23T07:03:18;4.60;;;3.50;;
35306;SDS011;21420;52.196;21.416;2022-09-23T07:05:46;4.47;;;4.05;;
35306;SDS011;21420;52.196;21.416;2022-09-23T07:08:12;5.47;;;4.10;;
35306;SDS011;21420;52.196;21.416;2022-09-23T07:10:39;7.83;;;4.20;;
35306;SDS011;21420;52.196;21.416;2022-09-23T07:13:05;4.58;;;4.10;;
35306;SDS011;21420;52.196;21.416;2022-09-23T07:15:31;4.65;;;4.25;;
35306;SDS011;21420;52.196;21.416;2022-09-23T07:17:58;6.40;;;4.60;;
35306;SDS011;21420;52.196;21.416;2022-09-23T07:20:24;5.03;;;4.40;;
35306;SDS011;21420;52.196;21.416;2022-09-23T07:22:50;5.97;;;4.42;;
35306;SDS011;21420;52.196;21.416;2022-09-23T07:25:17;6.05;;;4.50;;
35306;SDS011;21420;52.196;21.416;2022-09-23T07:27:44;4.90;;;4.22;;
35306;SDS011;21420;52.196;21.416;2022-09-23T07:30:13;4.55;;;4.15;;
35306;SDS011;21420;52.196;21.416;2022-09-23T07:32:40;4.90;;;4.40;;
35306;SDS011;21420;52.196;21.416;2022-09-23T07:35:07;3.75;;;3.45;;
35306;SDS011;21420;52.196;21.416;2022-09-23T07:37:35;4.05;;;2.80;;
35306;SDS011;21420;52.196;21.416;2022-09-23T07:40:02;3.15;;;2.12;;
35306;SDS011;21420;52.196;21.416;2022-09-23T07:42:29;2.33;;;2.12;;
35306;SDS011;21420;52.196;21.416;2022-09-23T07:44:55;2.50;;;2.12;;
35306;SDS011;21420;52.196;21.416;2022-09-23T07:47:21;4.50;;;1.80;;
35306;SDS011;21420;52.196;21.416;2022-09-23T07:49:47;2.27;;;1.40;;
35306;SDS011;21420;52.196;21.416;2022-09-23T07:52:14;1.72;;;1.50;;
35306;SDS011;21420;52.196;21.416;2022-09-23T07:54:42;1.30;;;1.00;;
35306;SDS011;21420;52.196;21.416;2022-09-23T07:57:12;3.02;;;1.10;;
35306;SDS011;21420;52.196;21.416;2022-09-23T07:59:38;2.22;;;1.57;;
35306;SDS011;21420;52.196;21.416;2022-09-23T08:02:05;1.57;;;1.30;;
35306;SDS011;21420;52.196;21.416;2022-09-23T08:04:31;1.47;;;1.00;;
35306;SDS011;21420;52.196;21.416;2022-09-23T08:06:59;0.65;;;0.50;;
35306;SDS011;21420;52.196;21.416;2022-09-23T08:09:34;1.22;;;1.00;;
35306;SDS011;21420;52.196;21.416;2022-09-23T08:12:04;1.90;;;1.07;;
35306;SDS011;21420;52.196;21.416;2022-09-23T08:14:31;0.65;;;0.65;;
35306;SDS011;21420;52.196;21.416;2022-09-23T08:16:58;1.47;;;0.90;;
35306;SDS011;21420;52.196;21.416;2022-09-23T08:19:24;1.40;;;1.10;;
35306;SDS011;21420;52.196;21.416;2022-09-23T08:21:50;0.53;;;0.53;;
35306;SDS011;21420;52.196;21.416;2022-09-23T08:24:18;0.93;;;0.90;;
35306;SDS011;21420;52.196;21.416;2022-09-23T08:26:46;0.82;;;0.82;;
35306;SDS011;21420;52.196;21.416;2022-09-23T08:29:16;0.60;;;0.60;;
35306;SDS011;21420;52.196;21.416;2022-09-23T08:31:44;1.47;;;0.50;;
35306;SDS011;21420;52.196;21.416;2022-09-23T08:34:11;0.70;;;0.68;;
35306;SDS011;21420;52.196;21.416;2022-09-23T08:36:38;0.80;;;0.70;;
35306;SDS011;21420;52.196;21.416;2022-09-23T08:39:04;0.72;;;0.68;;
35306;SDS011;21420;52.196;21.416;2022-09-23T08:44:27;1.10;;;0.80;;
35306;SDS011;21420;52.196;21.416;2022-09-23T08:52:28;0.88;;;0.65;;
35306;SDS011;21420;52.196;21.416;2022-09-23T08:55:33;0.85;;;0.40;;
35306;SDS011;21420;52.196;21.416;2022-09-23T09:03:46;2.40;;;1.50;;
35306;SDS011;21420;52.196;21.416;2022-09-23T09:11:57;0.50;;;0.50;;
35306;SDS011;21420;52.196;21.416;2022-09-23T09:17:17;0.62;;;0.50;;
35306;SDS011;21420;52.196;21.416;2022-09-23T09:31:19;0.53;;;0.30;;
35306;SDS011;21420;52.196;21.416;2022-09-23T09:34:08;0.47;;;0.47;;
35306;SDS011;21420;52.196;21.416;2022-09-23T09:39:43;0.65;;;0.65;;
35306;SDS011;21420;52.196;21.416;2022-09-23T09:42:12;0.70;;;0.70;;
35306;SDS011;21420;52.196;21.416;2022-09-23T09:44:49;0.88;;;0.35;;
35306;SDS011;21420;52.196;21.416;2022-09-23T09:50:11;0.68;;;0.50;;
35306;SDS011;21420;52.196;21.416;2022-09-23T09:56:01;0.40;;;0.40;;
35306;SDS011;21420;52.196;21.416;2022-09-23T09:58:26;0.30;;;0.30;;
35306;SDS011;21420;52.196;21.416;2022-09-23T10:00:55;0.40;;;0.40;;
35306;SDS011;21420;52.196;21.416;2022-09-23T10:03:29;0.45;;;0.40;;
35306;SDS011;21420;52.196;21.416;2022-09-23T10:06:03;0.62;;;0.50;;
35306;SDS011;21420;52.196;21.416;2022-09-23T10:09:00;0.72;;;0.45;;
35306;SDS011;21420;52.196;21.416;2022-09-23T10:11:32;0.75;;;0.30;;
35306;SDS011;21420;52.196;21.416;2022-09-23T10:16:44;0.50;;;0.50;;
35306;SDS011;21420;52.196;21.416;2022-09-23T10:21:53;3.27;;;0.68;;
35306;SDS011;21420;52.196;21.416;2022-09-23T10:24:30;0.45;;;0.40;;
35306;SDS011;21420;52.196;21.416;2022-09-23T10:27:00;0.50;;;0.45;;
35306;SDS011;21420;52.196;21.416;2022-09-23T10:29:37;0.53;;;0.50;;
35306;SDS011;21420;52.196;21.416;2022-09-23T10:40:16;0.98;;;0.50;;
35306;SDS011;21420;52.196;21.416;2022-09-23T10:43:10;0.47;;;0.47;;
35306;SDS011;21420;52.196;21.416;2022-09-23T10:46:06;0.37;;;0.37;;
35306;SDS011;21420;52.196;21.416;2022-09-23T10:52:14;1.62;;;0.50;;
35306;SDS011;21420;52.196;21.416;2022-09-23T11:00:47;1.27;;;0.53;;
35306;SDS011;21420;52.196;21.416;2022-09-23T11:06:12;0.80;;;0.60;;
35306;SDS011;21420;52.196;21.416;2022-09-23T11:35:32;3.47;;;0.57;;
35306;SDS011;21420;52.196;21.416;2022-09-23T11:40:48;2.05;;;0.70;;
35306;SDS011;21420;52.196;21.416;2022-09-23T11:43:22;1.20;;;0.50;;
35306;SDS011;21420;52.196;21.416;2022-09-23T11:46:12;0.78;;;0.60;;
35306;SDS011;21420;52.196;21.416;2022-09-23T11:51:31;0.45;;;0.45;;
35306;SDS011;21420;52.196;21.416;2022-09-23T11:54:03;1.17;;;0.45;;
35306;SDS011;21420;52.196;21.416;2022-09-23T11:56:46;2.72;;;2.05;;
35306;SDS011;21420;52.196;21.416;2022-09-23T11:59:30;0.47;;;0.47;;
35306;SDS011;21420;52.196;21.416;2022-09-23T12:02:00;0.80;;;0.60;;
35306;SDS011;21420;52.196;21.416;2022-09-23T12:04:50;0.57;;;0.57;;
35306;SDS011;21420;52.196;21.416;2022-09-23T12:07:36;0.50;;;0.50;;
35306;SDS011;21420;52.196;21.416;2022-09-23T12:10:34;0.53;;;0.53;;
35306;SDS011;21420;52.196;21.416;2022-09-23T12:12:56;0.60;;;0.60;;
35306;SDS011;21420;52.196;21.416;2022-09-23T12:27:02;0.85;;;0.65;;
35306;SDS011;21420;52.196;21.416;2022-09-23T12:29:31;1.98;;;0.72;;
35306;SDS011;21420;52.196;21.416;2022-09-23T12:32:01;0.50;;;0.50;;
35306;SDS011;21420;52.196;21.416;2022-09-23T12:34:32;1.27;;;0.62;;
35306;SDS011;21420;52.196;21.416;2022-09-23T12:37:04;0.65;;;0.60;;
35306;SDS011;21420;52.196;21.416;2022-09-23T12:39:31;0.93;;;0.70;;
35306;SDS011;21420;52.196;21.416;2022-09-23T12:42:05;1.62;;;0.57;;
35306;SDS011;21420;52.196;21.416;2022-09-23T12:44:42;0.95;;;0.70;;
35306;SDS011;21420;52.196;21.416;2022-09-23T12:49:48;0.68;;;0.40;;
35306;SDS011;21420;52.196;21.416;2022-09-23T12:54:50;1.62;;;0.70;;
35306;SDS011;21420;52.196;21.416;2022-09-23T13:05:52;0.88;;;0.60;;
35306;SDS011;21420;52.196;21.416;2022-09-23T13:08:43;1.12;;;0.80;;
35306;SDS011;21420;52.196;21.416;2022-09-23T13:13:54;1.75;;;0.62;;
35306;SDS011;21420;52.196;21.416;2022-09-23T13:24:35;1.40;;;0.65;;
35306;SDS011;21420;52.196;21.416;2022-09-23T13:27:17;0.82;;;0.57;;
35306;SDS011;21420;52.196;21.416;2022-09-23T13:30:05;1.20;;;0.60;;
35306;SDS011;21420;52.196;21.416;2022-09-23T13:32:45;1.20;;;0.78;;
35306;SDS011;21420;52.196;21.416;2022-09-23T13:35:47;1.27;;;0.70;;
35306;SDS011;21420;52.196;21.416;2022-09-23T13:38:19;1.90;;;0.60;;
35306;SDS011;21420;52.196;21.416;2022-09-23T13:40:50;0.60;;;0.60;;
35306;SDS011;21420;52.196;21.416;2022-09-23T13:43:21;1.77;;;0.85;;
35306;SDS011;21420;52.196;21.416;2022-09-23T13:45:53;0.65;;;0.60;;
35306;SDS011;21420;52.196;21.416;2022-09-23T13:48:21;0.70;;;0.50;;
35306;SDS011;21420;52.196;21.416;2022-09-23T13:50:50;0.60;;;0.60;;
35306;SDS011;21420;52.196;21.416;2022-09-23T13:53:22;0.95;;;0.85;;
35306;SDS011;21420;52.196;21.416;2022-09-23T13:56:47;0.60;;;0.47;;
35306;SDS011;21420;52.196;21.416;2022-09-23T13:59:24;1.15;;;0.78;;
35306;SDS011;21420;52.196;21.416;2022-09-23T14:02:10;0.70;;;0.68;;
35306;SDS011;21420;52.196;21.416;2022-09-23T14:07:06;2.33;;;0.70;;
35306;SDS011;21420;52.196;21.416;2022-09-23T14:09:35;1.02;;;0.60;;
35306;SDS011;21420;52.196;21.416;2022-09-23T14:12:08;0.98;;;0.60;;
35306;SDS011;21420;52.196;21.416;2022-09-23T14:14:37;1.05;;;0.72;;
35306;SDS011;21420;52.196;21.416;2022-09-23T14:17:06;0.70;;;0.50;;
35306;SDS011;21420;52.196;21.416;2022-09-23T14:19:33;0.78;;;0.45;;
35306;SDS011;21420;52.196;21.416;2022-09-23T14:22:04;2.45;;;0.68;;
35306;SDS011;21420;52.196;21.416;2022-09-23T14:24:31;0.68;;;0.53;;
35306;SDS011;21420;52.196;21.416;2022-09-23T14:40:26;0.80;;;0.70;;
35306;SDS011;21420;52.196;21.416;2022-09-23T14:45:44;1.75;;;1.15;;
35306;SDS011;21420;52.196;21.416;2022-09-23T14:48:15;0.70;;;0.70;;
35306;SDS011;21420;52.196;21.416;2022-09-23T14:50:56;1.25;;;0.90;;
35306;SDS011;21420;52.196;21.416;2022-09-23T14:58:47;3.50;;;0.90;;
35306;SDS011;21420;52.196;21.416;2022-09-23T15:07:03;0.82;;;0.80;;
35306;SDS011;21420;52.196;21.416;2022-09-23T15:09:36;2.73;;;0.73;;
35306;SDS011;21420;52.196;21.416;2022-09-23T15:12:05;2.02;;;0.98;;
35306;SDS011;21420;52.196;21.416;2022-09-23T15:14:47;2.62;;;1.27;;
35306;SDS011;21420;52.196;21.416;2022-09-23T15:17:19;2.37;;;1.15;;
35306;SDS011;21420;52.196;21.416;2022-09-23T15:19:47;2.40;;;1.42;;
35306;SDS011;21420;52.196;21.416;2022-09-23T15:22:22;1.98;;;1.22;;
35306;SDS011;21420;52.196;21.416;2022-09-23T15:24:50;3.37;;;1.20;;
35306;SDS011;21420;52.196;21.416;2022-09-23T15:30:09;2.10;;;1.15;;
35306;SDS011;21420;52.196;21.416;2022-09-23T15:32:37;2.77;;;1.30;;
35306;SDS011;21420;52.196;21.416;2022-09-23T15:35:04;2.17;;;1.00;;
35306;SDS011;21420;52.196;21.416;2022-09-23T15:37:32;1.52;;;1.20;;
35306;SDS011;21420;52.196;21.416;2022-09-23T15:39:58;4.25;;;1.77;;
35306;SDS011;21420;52.196;21.416;2022-09-23T15:42:24;2.80;;;1.45;;
35306;SDS011;21420;52.196;21.416;2022-09-23T15:44:51;6.30;;;2.20;;
35306;SDS011;21420;52.196;21.416;2022-09-23T15:47:17;2.55;;;1.60;;
35306;SDS011;21420;52.196;21.416;2022-09-23T15:49:45;3.22;;;1.50;;
35306;SDS011;21420;52.196;21.416;2022-09-23T15:52:12;2.15;;;1.27;;
35306;SDS011;21420;52.196;21.416;2022-09-23T15:54:40;3.92;;;1.37;;
35306;SDS011;21420;52.196;21.416;2022-09-23T15:57:08;2.50;;;1.57;;
35306;SDS011;21420;52.196;21.416;2022-09-23T15:59:35;3.95;;;3.27;;
35306;SDS011;21420;52.196;21.416;2022-09-23T16:02:02;12.40;;;10.25;;
35306;SDS011;21420;52.196;21.416;2022-09-23T16:04:33;15.10;;;13.45;;
35306;SDS011;21420;52.196;21.416;2022-09-23T16:07:00;33.73;;;30.23;;
35306;SDS011;21420;52.196;21.416;2022-09-23T16:09:28;31.75;;;28.47;;
35306;SDS011;21420;52.196;21.416;2022-09-23T16:11:56;25.05;;;22.37;;
35306;SDS011;21420;52.196;21.416;2022-09-23T16:14:22;22.60;;;19.90;;
35306;SDS011;21420;52.196;21.416;2022-09-23T16:16:50;21.17;;;18.98;;
35306;SDS011;21420;52.196;21.416;2022-09-23T16:19:18;21.10;;;18.82;;
35306;SDS011;21420;52.196;21.416;2022-09-23T16:21:44;25.72;;;20.27;;
35306;SDS011;21420;52.196;21.416;2022-09-23T16:24:14;54.63;;;42.73;;
35306;SDS011;21420;52.196;21.416;2022-09-23T16:26:43;335.20;;;165.28;;
35306;SDS011;21420;52.196;21.416;2022-09-23T16:29:13;253.32;;;124.80;;
35306;SDS011;21420;52.196;21.416;2022-09-23T16:31:41;115.32;;;54.48;;
35306;SDS011;21420;52.196;21.416;2022-09-23T16:34:07;31.33;;;18.95;;
35306;SDS011;21420;52.196;21.416;2022-09-23T16:36:39;27.32;;;17.87;;
35306;SDS011;21420;52.196;21.416;2022-09-23T16:39:07;31.33;;;22.27;;
35306;SDS011;21420;52.196;21.416;2022-09-23T16:41:37;28.67;;;19.07;;
35306;SDS011;21420;52.196;21.416;2022-09-23T16:44:03;24.02;;;16.77;;
35306;SDS011;21420;52.196;21.416;2022-09-23T16:46:35;27.37;;;16.25;;
35306;SDS011;21420;52.196;21.416;2022-09-23T16:49:01;69.07;;;38.17;;
35306;SDS011;21420;52.196;21.416;2022-09-23T16:51:29;78.05;;;46.77;;
35306;SDS011;21420;52.196;21.416;2022-09-23T16:54:00;27.45;;;18.25;;
35306;SDS011;21420;52.196;21.416;2022-09-23T16:56:27;23.15;;;14.98;;
35306;SDS011;21420;52.196;21.416;2022-09-23T16:58:55;9.27;;;5.13;;
35306;SDS011;21420;52.196;21.416;2022-09-23T17:01:27;5.65;;;3.05;;
35306;SDS011;21420;52.196;21.416;2022-09-23T17:04:11;13.83;;;7.08;;
35306;SDS011;21420;52.196;21.416;2022-09-23T17:06:42;7.65;;;3.55;;
35306;SDS011;21420;52.196;21.416;2022-09-23T17:09:12;9.73;;;6.15;;
35306;SDS011;21420;52.196;21.416;2022-09-23T17:11:39;6.08;;;4.42;;
35306;SDS011;21420;52.196;21.416;2022-09-23T17:14:07;9.90;;;7.30;;
35306;SDS011;21420;52.196;21.416;2022-09-23T17:16:35;12.25;;;8.73;;
35306;SDS011;21420;52.196;21.416;2022-09-23T17:19:06;15.13;;;9.83;;
35306;SDS011;21420;52.196;21.416;2022-09-23T17:21:34;14.18;;;9.23;;
35306;SDS011;21420;52.196;21.416;2022-09-23T17:24:01;26.30;;;15.50;;
35306;SDS011;21420;52.196;21.416;2022-09-23T17:26:29;22.10;;;15.15;;
35306;SDS011;21420;52.196;21.416;2022-09-23T17:28:56;23.42;;;15.05;;
35306;SDS011;21420;52.196;21.416;2022-09-23T17:31:24;29.90;;;18.25;;
35306;SDS011;21420;52.196;21.416;2022-09-23T17:33:51;26.42;;;17.73;;
35306;SDS011;21420;52.196;21.416;2022-09-23T17:36:18;23.18;;;16.32;;
35306;SDS011;21420;52.196;21.416;2022-09-23T17:38:46;25.72;;;18.65;;
35306;SDS011;21420;52.196;21.416;2022-09-23T17:41:14;27.10;;;16.95;;
35306;SDS011;21420;52.196;21.416;2022-09-23T17:43:42;27.67;;;17.62;;
35306;SDS011;21420;52.196;21.416;2022-09-23T17:46:10;28.05;;;17.55;;
35306;SDS011;21420;52.196;21.416;2022-09-23T17:48:40;28.42;;;18.07;;
35306;SDS011;21420;52.196;21.416;2022-09-23T17:51:12;26.33;;;15.10;;
35306;SDS011;21420;52.196;21.416;2022-09-23T17:53:42;19.80;;;14.00;;
35306;SDS011;21420;52.196;21.416;2022-09-23T17:56:23;23.50;;;13.88;;
35306;SDS011;21420;52.196;21.416;2022-09-23T17:58:51;24.25;;;13.65;;
35306;SDS011;21420;52.196;21.416;2022-09-23T18:01:19;21.25;;;14.05;;
35306;SDS011;21420;52.196;21.416;2022-09-23T18:03:52;28.10;;;16.15;;
35306;SDS011;21420;52.196;21.416;2022-09-23T18:06:22;26.10;;;17.80;;
35306;SDS011;21420;52.196;21.416;2022-09-23T18:08:50;37.83;;;22.25;;
35306;SDS011;21420;52.196;21.416;2022-09-23T18:11:26;47.62;;;28.47;;
35306;SDS011;21420;52.196;21.416;2022-09-23T18:16:53;33.30;;;20.45;;
35306;SDS011;21420;52.196;21.416;2022-09-23T18:19:20;32.80;;;19.07;;
35306;SDS011;21420;52.196;21.416;2022-09-23T18:21:49;33.67;;;18.23;;
35306;SDS011;21420;52.196;21.416;2022-09-23T18:24:20;26.82;;;16.32;;
35306;SDS011;21420;52.196;21.416;2022-09-23T18:26:48;41.40;;;23.70;;
35306;SDS011;21420;52.196;21.416;2022-09-23T18:29:19;82.72;;;53.25;;
35306;SDS011;21420;52.196;21.416;2022-09-23T18:31:47;41.10;;;27.22;;
35306;SDS011;21420;52.196;21.416;2022-09-23T18:34:15;37.00;;;24.20;;
35306;SDS011;21420;52.196;21.416;2022-09-23T18:36:44;46.98;;;26.77;;
35306;SDS011;21420;52.196;21.416;2022-09-23T18:39:11;48.20;;;28.98;;
35306;SDS011;21420;52.196;21.416;2022-09-23T18:41:37;50.63;;;33.98;;
35306;SDS011;21420;52.196;21.416;2022-09-23T18:44:05;64.37;;;38.92;;
35306;SDS011;21420;52.196;21.416;2022-09-23T18:46:31;77.20;;;46.68;;